sensor_id;sensor_type;location;lat;lon;timestamp;pressure;altitude;pressure_sealevel;temperature;humidity
38225;BME280;24025;48.138;11.428;2022-12-07T00:02:01;95440.03;;;2.46;89.02
38225;BME280;24025;48.138;11.428;2022-12-07T00:04:31;95442.66;;;2.46;88.99
38225;BME280;24025;48.138;11.428;2022-12-07T00:07:02;95451.63;;;2.45;88.71
38225;BME280;24025;48.138;11.428;2022-12-07T00:09:32;95441.28;;;2.48;88.95
38225;BME280;24025;48.138;11.428;2022-12-07T00:12:03;95435.38;;;2.51;88.59
38225;BME280;24025;48.138;11.428;2022-12-07T00:14:33;95437.25;;;2.42;88.96
38225;BME280;24025;48.138;11.428;2022-12-07T00:17:04;95436.47;;;2.42;89.32
38225;BME280;24025;48.138;11.428;2022-12-07T00:19:34;95429.81;;;2.36;89.03
38225;BME280;24025;48.138;11.428;2022-12-07T00:22:04;95427.03;;;2.41;88.83
38225;BME280;24025;48.138;11.428;2022-12-07T00:24:35;95432.00;;;2.34;89.31
38225;BME280;24025;48.138;11.428;2022-12-07T00:27:05;95425.97;;;2.24;89.36
38225;BME280;24025;48.138;11.428;2022-12-07T00:29:36;95426.09;;;2.37;89.17
38225;BME280;24025;48.138;11.428;2022-12-07T00:32:07;95425.81;;;2.30;89.38
38225;BME280;24025;48.138;11.428;2022-12-07T00:34:37;95425.34;;;2.36;88.76
38225;BME280;24025;48.138;11.428;2022-12-07T00:37:07;95423.47;;;2.37;89.51
38225;BME280;24025;48.138;11.428;2022-12-07T00:39:38;95416.53;;;2.41;88.79
38225;BME280;24025;48.138;11.428;2022-12-07T00:42:08;95421.94;;;2.36;88.66
38225;BME280;24025;48.138;11.428;2022-12-07T00:44:39;95423.97;;;2.39;89.41
38225;BME280;24025;48.138;11.428;2022-12-07T00:47:09;95425.97;;;2.42;89.16
38225;BME280;24025;48.138;11.428;2022-12-07T00:49:40;95429.50;;;2.37;88.68
38225;BME280;24025;48.138;11.428;2022-12-07T00:52:10;95424.75;;;2.31;89.19
38225;BME280;24025;48.138;11.428;2022-12-07T00:54:41;95424.25;;;2.37;89.37
38225;BME280;24025;48.138;11.428;2022-12-07T00:57:11;95426.09;;;2.45;88.67
38225;BME280;24025;48.138;11.428;2022-12-07T00:59:41;95419.91;;;2.50;88.88
38225;BME280;24025;48.138;11.428;2022-12-07T01:02:12;95424.38;;;2.58;88.50
38225;BME280;24025;48.138;11.428;2022-12-07T01:04:42;95429.34;;;2.51;88.01
38225;BME280;24025;48.138;11.428;2022-12-07T01:07:13;95421.47;;;2.42;89.10
38225;BME280;24025;48.138;11.428;2022-12-07T01:09:43;95422.38;;;2.38;89.20
38225;BME280;24025;48.138;11.428;2022-12-07T01:12:13;95415.75;;;2.40;88.94
38225;BME280;24025;48.138;11.428;2022-12-07T01:14:44;95423.16;;;2.38;88.83
38225;BME280;24025;48.138;11.428;2022-12-07T01:17:14;95418.38;;;2.32;89.15
38225;BME280;24025;48.138;11.428;2022-12-07T01:19:45;95421.03;;;2.32;89.09
38225;BME280;24025;48.138;11.428;2022-12-07T01:22:15;95426.41;;;2.35;89.65
38225;BME280;24025;48.138;11.428;2022-12-07T01:24:45;95424.25;;;2.37;89.15
38225;BME280;24025;48.138;11.428;2022-12-07T01:27:16;95420.53;;;2.38;88.94
38225;BME280;24025;48.138;11.428;2022-12-07T01:29:47;95418.97;;;2.46;89.42
38225;BME280;24025;48.138;11.428;2022-12-07T01:32:17;95427.94;;;2.45;88.94
38225;BME280;24025;48.138;11.428;2022-12-07T01:34:48;95428.59;;;2.42;88.81
38225;BME280;24025;48.138;11.428;2022-12-07T01:37:18;95426.72;;;2.42;88.64
38225;BME280;24025;48.138;11.428;2022-12-07T01:39:50;95425.50;;;2.48;89.15
38225;BME280;24025;48.138;11.428;2022-12-07T01:42:20;95424.53;;;2.53;89.44
38225;BME280;24025;48.138;11.428;2022-12-07T01:45:34;95418.03;;;2.59;88.25
38225;BME280;24025;48.138;11.428;2022-12-07T01:48:10;95418.63;;;2.65;88.00
38225;BME280;24025;48.138;11.428;2022-12-07T01:50:42;95412.75;;;2.68;88.33
38225;BME280;24025;48.138;11.428;2022-12-07T01:53:13;95412.09;;;2.71;88.29
38225;BME280;24025;48.138;11.428;2022-12-07T01:55:48;95411.34;;;2.62;87.79
38225;BME280;24025;48.138;11.428;2022-12-07T01:58:22;95413.84;;;2.58;87.95
38225;BME280;24025;48.138;11.428;2022-12-07T02:00:53;95407.63;;;2.63;88.38
38225;BME280;24025;48.138;11.428;2022-12-07T02:03:27;95416.00;;;2.65;88.29
38225;BME280;24025;48.138;11.428;2022-12-07T02:06:00;95411.53;;;2.65;88.38
38225;BME280;24025;48.138;11.428;2022-12-07T02:08:31;95415.84;;;2.70;88.13
38225;BME280;24025;48.138;11.428;2022-12-07T02:11:03;95416.44;;;2.75;88.24
38225;BME280;24025;48.138;11.428;2022-12-07T02:13:34;95407.13;;;2.78;87.25
38225;BME280;24025;48.138;11.428;2022-12-07T02:30:10;95398.47;;;2.77;86.88
38225;BME280;24025;48.138;11.428;2022-12-07T02:33:00;95393.53;;;2.76;87.18
38225;BME280;24025;48.138;11.428;2022-12-07T02:35:34;95395.66;;;2.82;87.24
38225;BME280;24025;48.138;11.428;2022-12-07T02:38:12;95396.59;;;2.78;87.47
38225;BME280;24025;48.138;11.428;2022-12-07T02:41:00;95394.88;;;2.82;88.02
38225;BME280;24025;48.138;11.428;2022-12-07T02:43:42;95396.28;;;2.79;86.98
38225;BME280;24025;48.138;11.428;2022-12-07T02:46:17;95398.63;;;2.72;87.38
38225;BME280;24025;48.138;11.428;2022-12-07T02:48:51;95388.41;;;2.71;87.16
38225;BME280;24025;48.138;11.428;2022-12-07T02:51:22;95387.94;;;2.77;87.83
38225;BME280;24025;48.138;11.428;2022-12-07T02:53:52;95393.00;;;2.82;87.48
38225;BME280;24025;48.138;11.428;2022-12-07T03:02:28;95390.06;;;2.93;87.02
38225;BME280;24025;48.138;11.428;2022-12-07T03:05:21;95392.81;;;2.96;86.88
38225;BME280;24025;48.138;11.428;2022-12-07T03:13:30;95389.28;;;2.92;86.40
38225;BME280;24025;48.138;11.428;2022-12-07T03:16:14;95389.28;;;2.92;86.14
38225;BME280;24025;48.138;11.428;2022-12-07T03:18:58;95392.53;;;2.89;86.26
38225;BME280;24025;48.138;11.428;2022-12-07T03:21:34;95386.94;;;2.91;86.63
38225;BME280;24025;48.138;11.428;2022-12-07T03:24:12;95392.09;;;2.87;86.12
38225;BME280;24025;48.138;11.428;2022-12-07T03:26:51;95394.84;;;2.91;87.08
38225;BME280;24025;48.138;11.428;2022-12-07T03:29:28;95393.50;;;2.84;86.67
38225;BME280;24025;48.138;11.428;2022-12-07T03:32:03;95394.09;;;2.81;87.12
38225;BME280;24025;48.138;11.428;2022-12-07T03:43:21;95391.75;;;2.89;86.02
38225;BME280;24025;48.138;11.428;2022-12-07T03:48:44;95384.34;;;2.82;85.50
38225;BME280;24025;48.138;11.428;2022-12-07T03:51:25;95383.56;;;2.81;86.05
38225;BME280;24025;48.138;11.428;2022-12-07T03:54:07;95377.22;;;2.82;86.69
38225;BME280;24025;48.138;11.428;2022-12-07T03:56:42;95383.56;;;2.81;87.15
38225;BME280;24025;48.138;11.428;2022-12-07T03:59:14;95382.09;;;2.63;87.59
38225;BME280;24025;48.138;11.428;2022-12-07T04:01:53;95376.38;;;2.61;87.52
38225;BME280;24025;48.138;11.428;2022-12-07T04:04:24;95376.06;;;2.63;87.70
38225;BME280;24025;48.138;11.428;2022-12-07T04:06:55;95379.34;;;2.51;88.77
38225;BME280;24025;48.138;11.428;2022-12-07T04:09:26;95378.72;;;2.54;88.56
38225;BME280;24025;48.138;11.428;2022-12-07T04:11:57;95379.69;;;2.41;89.21
38225;BME280;24025;48.138;11.428;2022-12-07T04:14:27;95376.41;;;2.44;89.39
38225;BME280;24025;48.138;11.428;2022-12-07T04:16:58;95374.56;;;2.44;89.42
38225;BME280;24025;48.138;11.428;2022-12-07T04:19:31;95381.38;;;2.45;90.05
38225;BME280;24025;48.138;11.428;2022-12-07T04:22:03;95385.69;;;2.50;90.50
38225;BME280;24025;48.138;11.428;2022-12-07T04:24:34;95384.00;;;2.45;90.00
38225;BME280;24025;48.138;11.428;2022-12-07T04:27:04;95388.16;;;2.46;90.49
38225;BME280;24025;48.138;11.428;2022-12-07T04:29:34;95387.72;;;2.36;90.07
38225;BME280;24025;48.138;11.428;2022-12-07T04:32:05;95383.44;;;2.22;90.94
38225;BME280;24025;48.138;11.428;2022-12-07T04:34:35;95381.41;;;2.28;91.60
38225;BME280;24025;48.138;11.428;2022-12-07T04:37:06;95381.88;;;2.30;90.38
38225;BME280;24025;48.138;11.428;2022-12-07T04:39:36;95380.81;;;2.22;90.69
38225;BME280;24025;48.138;11.428;2022-12-07T04:42:07;95369.81;;;2.20;91.60
38225;BME280;24025;48.138;11.428;2022-12-07T04:44:37;95372.16;;;2.13;91.59
38225;BME280;24025;48.138;11.428;2022-12-07T04:47:07;95384.22;;;2.23;92.37
38225;BME280;24025;48.138;11.428;2022-12-07T04:49:38;95384.03;;;2.19;91.68
38225;BME280;24025;48.138;11.428;2022-12-07T04:52:08;95385.28;;;2.22;91.65
38225;BME280;24025;48.138;11.428;2022-12-07T04:54:39;95388.06;;;2.17;92.24
38225;BME280;24025;48.138;11.428;2022-12-07T04:57:09;95380.50;;;2.24;91.07
38225;BME280;24025;48.138;11.428;2022-12-07T04:59:39;95387.44;;;2.11;91.39
38225;BME280;24025;48.138;11.428;2022-12-07T05:02:10;95379.13;;;1.92;91.86
38225;BME280;24025;48.138;11.428;2022-12-07T05:04:40;95381.44;;;2.02;92.83
38225;BME280;24025;48.138;11.428;2022-12-07T05:07:11;95377.72;;;2.03;92.01
38225;BME280;24025;48.138;11.428;2022-12-07T05:09:41;95388.22;;;2.03;93.32
38225;BME280;24025;48.138;11.428;2022-12-07T05:12:11;95385.00;;;2.06;92.28
38225;BME280;24025;48.138;11.428;2022-12-07T05:14:42;95391.66;;;2.12;92.72
38225;BME280;24025;48.138;11.428;2022-12-07T05:17:12;95387.16;;;2.21;92.45
38225;BME280;24025;48.138;11.428;2022-12-07T05:19:42;95393.78;;;2.19;91.90
38225;BME280;24025;48.138;11.428;2022-12-07T05:22:13;95391.66;;;2.12;90.94
38225;BME280;24025;48.138;11.428;2022-12-07T05:24:44;95381.91;;;1.95;92.34
38225;BME280;24025;48.138;11.428;2022-12-07T05:27:14;95383.78;;;1.95;92.62
38225;BME280;24025;48.138;11.428;2022-12-07T05:29:45;95387.63;;;1.97;92.82
38225;BME280;24025;48.138;11.428;2022-12-07T05:32:15;95388.53;;;2.02;93.43
38225;BME280;24025;48.138;11.428;2022-12-07T05:34:45;95389.03;;;2.04;92.31
38225;BME280;24025;48.138;11.428;2022-12-07T05:37:16;95387.00;;;2.09;92.90
38225;BME280;24025;48.138;11.428;2022-12-07T05:39:46;95383.44;;;2.05;92.09
38225;BME280;24025;48.138;11.428;2022-12-07T05:42:16;95393.19;;;2.05;91.95
38225;BME280;24025;48.138;11.428;2022-12-07T05:44:47;95385.44;;;2.08;92.11
38225;BME280;24025;48.138;11.428;2022-12-07T05:47:17;95395.50;;;2.06;92.07
38225;BME280;24025;48.138;11.428;2022-12-07T05:49:48;95385.16;;;1.92;92.74
38225;BME280;24025;48.138;11.428;2022-12-07T05:52:19;95374.81;;;1.96;92.56
38225;BME280;24025;48.138;11.428;2022-12-07T05:54:49;95378.66;;;1.98;92.74
38225;BME280;24025;48.138;11.428;2022-12-07T05:57:19;95383.91;;;1.81;92.50
38225;BME280;24025;48.138;11.428;2022-12-07T05:59:50;95387.16;;;1.95;92.63
38225;BME280;24025;48.138;11.428;2022-12-07T06:02:20;95385.13;;;2.01;92.73
38225;BME280;24025;48.138;11.428;2022-12-07T06:04:51;95390.84;;;2.03;92.26
38225;BME280;24025;48.138;11.428;2022-12-07T06:07:21;95388.88;;;1.83;92.52
38225;BME280;24025;48.138;11.428;2022-12-07T06:09:52;95389.94;;;1.90;92.75
38225;BME280;24025;48.138;11.428;2022-12-07T06:12:22;95389.94;;;1.99;93.09
38225;BME280;24025;48.138;11.428;2022-12-07T06:15:05;95394.75;;;2.06;92.67
38225;BME280;24025;48.138;11.428;2022-12-07T06:17:36;95397.38;;;2.14;92.66
38225;BME280;24025;48.138;11.428;2022-12-07T06:20:07;95400.00;;;2.14;91.89
38225;BME280;24025;48.138;11.428;2022-12-07T06:22:37;95395.97;;;2.17;91.62
38225;BME280;24025;48.138;11.428;2022-12-07T06:25:08;95396.09;;;2.20;91.15
38225;BME280;24025;48.138;11.428;2022-12-07T06:27:38;95400.44;;;2.16;90.92
38225;BME280;24025;48.138;11.428;2022-12-07T06:30:09;95402.16;;;2.21;91.27
38225;BME280;24025;48.138;11.428;2022-12-07T06:32:39;95397.69;;;2.21;91.19
38225;BME280;24025;48.138;11.428;2022-12-07T06:35:10;95406.16;;;2.18;91.07
38225;BME280;24025;48.138;11.428;2022-12-07T06:37:40;95403.53;;;2.10;90.46
38225;BME280;24025;48.138;11.428;2022-12-07T06:40:11;95402.31;;;2.16;90.81
38225;BME280;24025;48.138;11.428;2022-12-07T06:42:41;95409.75;;;2.22;90.74
38225;BME280;24025;48.138;11.428;2022-12-07T06:45:11;95401.22;;;2.17;91.05
38225;BME280;24025;48.138;11.428;2022-12-07T06:47:42;95398.44;;;2.22;91.24
38225;BME280;24025;48.138;11.428;2022-12-07T06:50:12;95406.34;;;2.22;90.87
38225;BME280;24025;48.138;11.428;2022-12-07T06:52:43;95400.91;;;2.27;90.67
38225;BME280;24025;48.138;11.428;2022-12-07T06:55:13;95413.28;;;2.26;90.46
38225;BME280;24025;48.138;11.428;2022-12-07T06:57:43;95412.50;;;2.17;90.33
38225;BME280;24025;48.138;11.428;2022-12-07T07:00:14;95411.88;;;2.20;90.02
38225;BME280;24025;48.138;11.428;2022-12-07T07:02:45;95411.75;;;2.25;89.94
38225;BME280;24025;48.138;11.428;2022-12-07T07:05:15;95425.53;;;2.22;90.22
38225;BME280;24025;48.138;11.428;2022-12-07T07:07:46;95420.09;;;2.19;89.77
38225;BME280;24025;48.138;11.428;2022-12-07T07:10:17;95409.25;;;2.20;89.95
38225;BME280;24025;48.138;11.428;2022-12-07T07:12:48;95410.66;;;2.26;90.49
38225;BME280;24025;48.138;11.428;2022-12-07T07:15:18;95419.50;;;2.22;89.88
38225;BME280;24025;48.138;11.428;2022-12-07T07:17:49;95408.97;;;2.22;89.32
38225;BME280;24025;48.138;11.428;2022-12-07T07:20:19;95414.22;;;2.22;89.36
38225;BME280;24025;48.138;11.428;2022-12-07T07:22:50;95415.47;;;2.24;89.09
38225;BME280;24025;48.138;11.428;2022-12-07T07:25:20;95418.72;;;2.21;88.81
38225;BME280;24025;48.138;11.428;2022-12-07T07:27:50;95420.72;;;2.24;89.30
38225;BME280;24025;48.138;11.428;2022-12-07T07:30:21;95419.00;;;2.28;88.85
38225;BME280;24025;48.138;11.428;2022-12-07T07:32:56;95418.06;;;2.33;89.40
38225;BME280;24025;48.138;11.428;2022-12-07T07:35:28;95414.22;;;2.31;88.70
38225;BME280;24025;48.138;11.428;2022-12-07T07:37:59;95430.59;;;2.36;88.38
38225;BME280;24025;48.138;11.428;2022-12-07T07:40:30;95427.19;;;2.36;87.53
38225;BME280;24025;48.138;11.428;2022-12-07T07:43:00;95431.06;;;2.38;87.49
38225;BME280;24025;48.138;11.428;2022-12-07T07:45:31;95431.69;;;2.35;87.10
38225;BME280;24025;48.138;11.428;2022-12-07T07:48:01;95434.00;;;2.37;87.85
38225;BME280;24025;48.138;11.428;2022-12-07T07:50:31;95434.63;;;2.25;87.51
38225;BME280;24025;48.138;11.428;2022-12-07T07:53:02;95427.84;;;2.15;87.95
38225;BME280;24025;48.138;11.428;2022-12-07T07:55:32;95424.44;;;2.15;88.89
38225;BME280;24025;48.138;11.428;2022-12-07T07:58:03;95431.09;;;2.21;89.78
38225;BME280;24025;48.138;11.428;2022-12-07T08:00:33;95430.59;;;2.19;88.66
38225;BME280;24025;48.138;11.428;2022-12-07T08:03:04;95432.63;;;2.31;89.53
38225;BME280;24025;48.138;11.428;2022-12-07T08:05:34;95432.00;;;2.34;89.06
38225;BME280;24025;48.138;11.428;2022-12-07T08:08:06;95434.94;;;2.41;88.91
38225;BME280;24025;48.138;11.428;2022-12-07T08:10:37;95423.47;;;2.45;89.31
38225;BME280;24025;48.138;11.428;2022-12-07T08:13:07;95427.19;;;2.44;88.17
38225;BME280;24025;48.138;11.428;2022-12-07T08:15:45;95429.22;;;2.47;88.33
38225;BME280;24025;48.138;11.428;2022-12-07T08:18:16;95428.72;;;2.54;87.83
38225;BME280;24025;48.138;11.428;2022-12-07T08:20:47;95426.69;;;2.60;87.14
38225;BME280;24025;48.138;11.428;2022-12-07T08:23:17;95427.91;;;2.62;87.38
38225;BME280;24025;48.138;11.428;2022-12-07T08:25:47;95433.53;;;2.52;87.09
38225;BME280;24025;48.138;11.428;2022-12-07T08:28:18;95436.59;;;2.54;87.18
38225;BME280;24025;48.138;11.428;2022-12-07T08:30:48;95438.34;;;2.50;87.41
38225;BME280;24025;48.138;11.428;2022-12-07T08:33:19;95432.91;;;2.46;87.78
38225;BME280;24025;48.138;11.428;2022-12-07T08:35:52;95435.72;;;2.41;87.18
38225;BME280;24025;48.138;11.428;2022-12-07T08:38:22;95436.03;;;2.22;88.01
38225;BME280;24025;48.138;11.428;2022-12-07T08:40:54;95433.09;;;2.33;87.76
38225;BME280;24025;48.138;11.428;2022-12-07T08:43:25;95430.91;;;2.35;87.60
38225;BME280;24025;48.138;11.428;2022-12-07T08:48:39;95431.03;;;2.47;86.99
38225;BME280;24025;48.138;11.428;2022-12-07T08:51:11;95423.28;;;2.59;86.76
38225;BME280;24025;48.138;11.428;2022-12-07T08:53:42;95427.44;;;2.69;86.48
38225;BME280;24025;48.138;11.428;2022-12-07T08:56:13;95430.41;;;2.67;85.82
38225;BME280;24025;48.138;11.428;2022-12-07T08:58:44;95428.53;;;2.76;85.24
38225;BME280;24025;48.138;11.428;2022-12-07T09:01:14;95433.47;;;2.78;84.43
38225;BME280;24025;48.138;11.428;2022-12-07T09:03:45;95428.84;;;2.66;85.19
38225;BME280;24025;48.138;11.428;2022-12-07T09:06:15;95430.19;;;2.81;85.52
38225;BME280;24025;48.138;11.428;2022-12-07T09:08:47;95438.88;;;2.81;85.74
38225;BME280;24025;48.138;11.428;2022-12-07T09:11:20;95428.81;;;2.83;84.52
38225;BME280;24025;48.138;11.428;2022-12-07T09:13:50;95430.81;;;2.87;83.25
38225;BME280;24025;48.138;11.428;2022-12-07T09:16:21;95423.34;;;2.89;83.76
38225;BME280;24025;48.138;11.428;2022-12-07T09:18:51;95421.50;;;2.89;83.71
38225;BME280;24025;48.138;11.428;2022-12-07T09:21:21;95418.09;;;2.89;84.05
38225;BME280;24025;48.138;11.428;2022-12-07T09:23:52;95417.41;;;3.00;83.74
38225;BME280;24025;48.138;11.428;2022-12-07T09:26:22;95430.13;;;2.98;83.60
38225;BME280;24025;48.138;11.428;2022-12-07T09:28:53;95433.34;;;3.12;84.69
38225;BME280;24025;48.138;11.428;2022-12-07T09:31:23;95432.16;;;3.01;83.89
38225;BME280;24025;48.138;11.428;2022-12-07T09:33:57;95432.72;;;3.16;84.02
38225;BME280;24025;48.138;11.428;2022-12-07T09:36:28;95422.16;;;3.16;83.06
38225;BME280;24025;48.138;11.428;2022-12-07T09:38:59;95424.72;;;3.03;83.38
38225;BME280;24025;48.138;11.428;2022-12-07T09:41:31;95427.94;;;3.00;84.66
38225;BME280;24025;48.138;11.428;2022-12-07T09:44:13;95429.97;;;3.03;83.71
38225;BME280;24025;48.138;11.428;2022-12-07T09:46:44;95431.03;;;3.11;83.06
38225;BME280;24025;48.138;11.428;2022-12-07T09:49:18;95422.66;;;3.09;83.67
38225;BME280;24025;48.138;11.428;2022-12-07T09:52:01;95422.84;;;3.04;83.04
38225;BME280;24025;48.138;11.428;2022-12-07T09:54:35;95415.69;;;3.13;83.61
38225;BME280;24025;48.138;11.428;2022-12-07T09:57:08;95420.25;;;3.25;82.94
38225;BME280;24025;48.138;11.428;2022-12-07T09:59:39;95422.00;;;3.21;82.56
38225;BME280;24025;48.138;11.428;2022-12-07T10:02:39;95414.06;;;3.29;81.65
38225;BME280;24025;48.138;11.428;2022-12-07T10:05:14;95410.00;;;3.32;81.87
38225;BME280;24025;48.138;11.428;2022-12-07T10:07:45;95405.72;;;3.48;81.55
38225;BME280;24025;48.138;11.428;2022-12-07T10:10:21;95400.59;;;3.52;80.38
38225;BME280;24025;48.138;11.428;2022-12-07T10:12:58;95407.94;;;3.46;80.61
38225;BME280;24025;48.138;11.428;2022-12-07T10:15:50;95403.69;;;3.54;80.03
38225;BME280;24025;48.138;11.428;2022-12-07T10:18:34;95404.91;;;3.56;78.67
38225;BME280;24025;48.138;11.428;2022-12-07T10:24:02;95406.34;;;3.75;76.95
38225;BME280;24025;48.138;11.428;2022-12-07T10:26:36;95401.44;;;3.85;77.09
38225;BME280;24025;48.138;11.428;2022-12-07T10:29:14;95393.91;;;3.96;76.87
38225;BME280;24025;48.138;11.428;2022-12-07T10:31:55;95397.72;;;3.86;77.22
38225;BME280;24025;48.138;11.428;2022-12-07T10:34:35;95395.47;;;3.97;76.71
38225;BME280;24025;48.138;11.428;2022-12-07T10:39:54;95399.13;;;4.05;75.68
38225;BME280;24025;48.138;11.428;2022-12-07T10:42:34;95390.66;;;3.99;75.23
38225;BME280;24025;48.138;11.428;2022-12-07T10:59:12;95379.81;;;4.46;70.28
38225;BME280;24025;48.138;11.428;2022-12-07T11:05:17;95366.81;;;5.10;69.92
38225;BME280;24025;48.138;11.428;2022-12-07T11:16:03;95351.59;;;5.96;67.10
38225;BME280;24025;48.138;11.428;2022-12-07T11:18:57;95351.06;;;6.47;63.21
38225;BME280;24025;48.138;11.428;2022-12-07T11:21:47;95349.28;;;6.98;60.72
38225;BME280;24025;48.138;11.428;2022-12-07T11:24:24;95343.47;;;6.93;58.44
38225;BME280;24025;48.138;11.428;2022-12-07T11:27:01;95347.22;;;7.07;59.30
38225;BME280;24025;48.138;11.428;2022-12-07T11:32:14;95336.84;;;7.34;57.70
38225;BME280;24025;48.138;11.428;2022-12-07T11:37:49;95340.13;;;6.64;59.93
38225;BME280;24025;48.138;11.428;2022-12-07T11:40:31;95338.84;;;6.14;58.24
38225;BME280;24025;48.138;11.428;2022-12-07T11:43:28;95339.41;;;6.08;58.09
38225;BME280;24025;48.138;11.428;2022-12-07T11:46:12;95330.66;;;5.79;58.76
38225;BME280;24025;48.138;11.428;2022-12-07T11:48:50;95340.00;;;5.89;59.73
38225;BME280;24025;48.138;11.428;2022-12-07T11:51:24;95329.19;;;5.54;59.37
38225;BME280;24025;48.138;11.428;2022-12-07T11:54:00;95330.56;;;5.35;60.71
38225;BME280;24025;48.138;11.428;2022-12-07T11:56:34;95322.31;;;5.25;59.77
38225;BME280;24025;48.138;11.428;2022-12-07T11:59:11;95321.22;;;5.14;61.05
38225;BME280;24025;48.138;11.428;2022-12-07T12:02:07;95315.06;;;4.97;60.79
38225;BME280;24025;48.138;11.428;2022-12-07T12:04:51;95322.56;;;5.07;61.51
38225;BME280;24025;48.138;11.428;2022-12-07T12:07:26;95315.06;;;5.09;61.41
38225;BME280;24025;48.138;11.428;2022-12-07T12:10:06;95308.03;;;5.14;61.32
38225;BME280;24025;48.138;11.428;2022-12-07T12:21:22;95303.63;;;4.81;60.81
38225;BME280;24025;48.138;11.428;2022-12-07T12:24:04;95289.84;;;4.75;61.38
38225;BME280;24025;48.138;11.428;2022-12-07T12:27:01;95303.41;;;4.62;61.21
38225;BME280;24025;48.138;11.428;2022-12-07T12:29:39;95303.16;;;4.42;61.21
38225;BME280;24025;48.138;11.428;2022-12-07T12:32:23;95288.75;;;4.64;60.64
38225;BME280;24025;48.138;11.428;2022-12-07T12:35:20;95304.28;;;4.66;60.92
38225;BME280;24025;48.138;11.428;2022-12-07T12:37:55;95298.56;;;4.51;61.26
38225;BME280;24025;48.138;11.428;2022-12-07T12:43:01;95299.22;;;4.61;60.64
38225;BME280;24025;48.138;11.428;2022-12-07T12:45:32;95294.38;;;4.75;61.04
38225;BME280;24025;48.138;11.428;2022-12-07T12:48:28;95296.38;;;4.78;60.74
38225;BME280;24025;48.138;11.428;2022-12-07T12:54:08;95292.72;;;4.46;61.46
38225;BME280;24025;48.138;11.428;2022-12-07T12:59:38;95282.03;;;4.54;61.97
38225;BME280;24025;48.138;11.428;2022-12-07T13:02:28;95290.16;;;4.49;63.14
38225;BME280;24025;48.138;11.428;2022-12-07T13:18:37;95287.00;;;4.44;63.95
38225;BME280;24025;48.138;11.428;2022-12-07T13:29:18;95280.50;;;4.53;62.69
38225;BME280;24025;48.138;11.428;2022-12-07T13:31:56;95273.13;;;4.59;63.19
38225;BME280;24025;48.138;11.428;2022-12-07T13:37:04;95277.97;;;4.45;63.20
38225;BME280;24025;48.138;11.428;2022-12-07T13:39:49;95279.41;;;4.42;62.92
38225;BME280;24025;48.138;11.428;2022-12-07T13:42:28;95273.53;;;4.24;61.86
38225;BME280;24025;48.138;11.428;2022-12-07T13:47:54;95269.34;;;4.23;61.78
38225;BME280;24025;48.138;11.428;2022-12-07T13:50:30;95267.03;;;4.10;61.50
38225;BME280;24025;48.138;11.428;2022-12-07T13:53:01;95264.16;;;4.15;61.95
38225;BME280;24025;48.138;11.428;2022-12-07T13:55:44;95260.22;;;4.09;62.00
38225;BME280;24025;48.138;11.428;2022-12-07T13:58:16;95259.88;;;4.10;61.77
38225;BME280;24025;48.138;11.428;2022-12-07T14:00:46;95254.59;;;3.98;60.12
38225;BME280;24025;48.138;11.428;2022-12-07T14:06:03;95265.91;;;3.98;60.38
38225;BME280;24025;48.138;11.428;2022-12-07T14:08:34;95254.34;;;4.03;61.22
38225;BME280;24025;48.138;11.428;2022-12-07T14:11:05;95252.34;;;3.88;61.09
38225;BME280;24025;48.138;11.428;2022-12-07T14:18:52;95254.94;;;3.76;61.42
38225;BME280;24025;48.138;11.428;2022-12-07T14:21:24;95259.09;;;3.64;62.58
38225;BME280;24025;48.138;11.428;2022-12-07T14:24:09;95249.88;;;3.70;63.39
38225;BME280;24025;48.138;11.428;2022-12-07T14:26:40;95247.03;;;3.76;63.76
38225;BME280;24025;48.138;11.428;2022-12-07T14:31:52;95245.91;;;3.64;64.83
38225;BME280;24025;48.138;11.428;2022-12-07T14:34:23;95252.38;;;3.67;65.41
38225;BME280;24025;48.138;11.428;2022-12-07T14:36:54;95245.56;;;3.66;65.11
38225;BME280;24025;48.138;11.428;2022-12-07T14:39:24;95250.09;;;3.65;66.09
38225;BME280;24025;48.138;11.428;2022-12-07T14:41:55;95244.16;;;3.68;66.05
38225;BME280;24025;48.138;11.428;2022-12-07T14:44:25;95249.06;;;3.58;65.51
38225;BME280;24025;48.138;11.428;2022-12-07T14:46:55;95250.09;;;3.65;66.23
38225;BME280;24025;48.138;11.428;2022-12-07T14:49:26;95247.56;;;3.69;66.75
38225;BME280;24025;48.138;11.428;2022-12-07T14:51:58;95251.44;;;3.72;66.56
38225;BME280;24025;48.138;11.428;2022-12-07T14:54:31;95248.13;;;3.75;68.34
38225;BME280;24025;48.138;11.428;2022-12-07T14:57:02;95244.28;;;3.72;67.18
38225;BME280;24025;48.138;11.428;2022-12-07T14:59:32;95249.09;;;3.70;68.12
38225;BME280;24025;48.138;11.428;2022-12-07T15:02:03;95243.19;;;3.73;68.35
38225;BME280;24025;48.138;11.428;2022-12-07T15:04:34;95247.56;;;3.69;67.80
38225;BME280;24025;48.138;11.428;2022-12-07T15:07:06;95243.19;;;3.73;67.86
38225;BME280;24025;48.138;11.428;2022-12-07T15:09:39;95247.69;;;3.73;68.08
38225;BME280;24025;48.138;11.428;2022-12-07T15:12:09;95252.63;;;3.74;68.27
38225;BME280;24025;48.138;11.428;2022-12-07T15:14:39;95256.38;;;3.73;68.49
38225;BME280;24025;48.138;11.428;2022-12-07T15:17:11;95250.34;;;3.73;69.04
38225;BME280;24025;48.138;11.428;2022-12-07T15:19:42;95251.09;;;3.73;69.21
38225;BME280;24025;48.138;11.428;2022-12-07T15:22:12;95251.09;;;3.73;69.22
38225;BME280;24025;48.138;11.428;2022-12-07T15:24:43;95251.88;;;3.74;68.87
38225;BME280;24025;48.138;11.428;2022-12-07T15:27:13;95241.75;;;3.76;69.25
38225;BME280;24025;48.138;11.428;2022-12-07T15:29:44;95249.75;;;3.67;68.97
38225;BME280;24025;48.138;11.428;2022-12-07T15:32:14;95252.91;;;3.60;68.55
38225;BME280;24025;48.138;11.428;2022-12-07T15:34:44;95249.81;;;3.58;69.11
38225;BME280;24025;48.138;11.428;2022-12-07T15:37:15;95254.28;;;3.46;67.54
38225;BME280;24025;48.138;11.428;2022-12-07T15:39:46;95251.66;;;3.46;68.21
38225;BME280;24025;48.138;11.428;2022-12-07T15:42:16;95253.53;;;3.45;69.12
38225;BME280;24025;48.138;11.428;2022-12-07T15:44:46;95258.31;;;3.43;69.47